createdAt,value
2022-10-21T00:00:17.078Z,18.03
2022-10-21T00:02:46.799Z,20.85
2022-10-21T00:05:19.401Z,17.08
2022-10-21T00:07:49.128Z,18.05
2022-10-21T00:10:18.841Z,20.88
2022-10-21T00:12:48.541Z,16.67
2022-10-21T00:15:18.378Z,18.92
2022-10-21T00:17:48.129Z,19.20
2022-10-21T00:22:50.837Z,16.90
2022-10-21T00:25:20.809Z,16.23
2022-10-21T00:27:50.526Z,16.93
2022-10-21T00:30:20.441Z,15.68
2022-10-21T00:32:50.128Z,16.38
2022-10-21T00:35:22.508Z,19.13
2022-10-21T00:37:52.237Z,20.57
2022-10-21T00:40:21.955Z,18.07
2022-10-21T00:42:51.625Z,22.05
2022-10-21T00:45:24.797Z,21.23
2022-10-21T00:47:57.451Z,18.07
2022-10-21T00:50:40.211Z,19.52
2022-10-21T00:53:15.917Z,19.45
2022-10-21T00:55:50.663Z,19.88
2022-10-21T00:58:23.808Z,20.23
2022-10-21T01:00:54.713Z,20.08
2022-10-21T01:03:25.537Z,19.58
2022-10-21T01:06:01.396Z,17.08
2022-10-21T01:08:32.448Z,16.97
2022-10-21T01:11:03.809Z,20.23
2022-10-21T01:13:47.354Z,16.48
2022-10-21T01:16:25.497Z,17.13
2022-10-21T01:19:02.439Z,17.63
2022-10-21T01:21:42.159Z,18.15
2022-10-21T01:24:44.887Z,18.60
2022-10-21T01:27:40.681Z,16.25
2022-10-21T01:30:31.502Z,19.03
2022-10-21T01:33:26.617Z,18.67
2022-10-21T01:36:01.550Z,14.60
2022-10-21T01:38:41.918Z,16.85
2022-10-21T01:41:19.697Z,18.53
2022-10-21T01:43:55.771Z,20.10
2022-10-21T01:46:29.691Z,20.17
2022-10-21T01:49:07.369Z,19.50
2022-10-21T01:51:39.632Z,17.70
2022-10-21T01:54:16.977Z,17.88
2022-10-21T01:56:49.221Z,21.25
2022-10-21T01:59:21.021Z,18.07
2022-10-21T02:01:52.973Z,19.53
2022-10-21T02:04:27.138Z,18.85
2022-10-21T02:06:57.014Z,16.92
2022-10-21T02:09:27.444Z,17.67
2022-10-21T02:12:00.098Z,15.80
2022-10-21T02:14:35.290Z,16.80
2022-10-21T02:17:05.877Z,16.33
2022-10-21T02:19:38.275Z,17.63
2022-10-21T02:22:11.739Z,15.52
2022-10-21T02:24:48.601Z,17.75
2022-10-21T02:27:18.497Z,16.73
2022-10-21T02:29:51.349Z,15.97
2022-10-21T02:32:31.772Z,15.70
2022-10-21T02:35:19.152Z,19.10
2022-10-21T02:37:57.102Z,17.02
2022-10-21T02:40:32.983Z,17.40
2022-10-21T02:43:07.277Z,25.20
2022-10-21T02:45:38.586Z,21.88
2022-10-21T02:48:08.595Z,21.17
2022-10-21T02:50:40.937Z,24.17
2022-10-21T02:53:13.685Z,18.83
2022-10-21T02:55:43.388Z,19.03
2022-10-21T02:58:14.046Z,24.53
2022-10-21T03:00:43.863Z,19.80
2022-10-21T03:03:13.678Z,16.83
2022-10-21T03:05:46.176Z,20.17
2022-10-21T03:08:15.908Z,16.70
2022-10-21T03:10:48.046Z,21.30
2022-10-21T03:13:20.321Z,37.23
2022-10-21T03:15:51.392Z,27.63
2022-10-21T03:18:21.484Z,34.55
2022-10-21T03:20:55.076Z,27.40
2022-10-21T03:23:24.785Z,10.20
2022-10-21T03:25:54.487Z,9.63
2022-10-21T03:28:24.240Z,9.82
2022-10-21T03:30:53.952Z,7.80
2022-10-21T03:33:23.633Z,10.18
2022-10-21T03:35:55.964Z,11.95
2022-10-21T03:38:25.895Z,13.38
2022-10-21T03:40:55.586Z,11.15
2022-10-21T03:43:25.310Z,9.82
2022-10-21T03:45:55.022Z,12.73
2022-10-21T03:48:24.732Z,10.35
2022-10-21T03:50:58.311Z,15.57
2022-10-21T03:53:42.445Z,13.02
2022-10-21T03:56:13.191Z,18.20
2022-10-21T03:58:43.079Z,19.58
2022-10-21T04:01:15.172Z,19.23
2022-10-21T04:03:44.921Z,14.68
2022-10-21T04:06:17.305Z,14.27
2022-10-21T04:08:47.052Z,15.50
2022-10-21T04:11:16.784Z,12.73
2022-10-21T04:13:46.535Z,14.60
2022-10-21T04:16:19.449Z,16.23
2022-10-21T04:18:49.415Z,20.00
2022-10-21T04:24:11.572Z,14.10
2022-10-21T04:26:42.029Z,13.65
2022-10-21T04:29:12.293Z,12.30
2022-10-21T04:31:42.091Z,15.45
2022-10-21T04:34:11.909Z,20.55
2022-10-21T04:36:44.236Z,16.65
2022-10-21T04:39:13.957Z,16.23
2022-10-21T04:41:44.681Z,13.88
2022-10-21T04:44:14.581Z,15.60
2022-10-21T04:46:44.260Z,16.20
2022-10-21T04:49:13.994Z,14.57
2022-10-21T04:51:46.325Z,15.70
2022-10-21T04:54:16.402Z,23.48
2022-10-21T04:56:46.243Z,20.65
2022-10-21T04:59:16.077Z,19.48
2022-10-21T05:01:45.789Z,17.52
2022-10-21T05:04:15.602Z,22.63
2022-10-21T05:06:47.944Z,17.98
2022-10-21T05:09:18.061Z,17.88
2022-10-21T05:11:47.833Z,22.63
2022-10-21T05:14:21.696Z,20.83
2022-10-21T05:16:52.630Z,19.58
2022-10-21T05:19:22.425Z,17.42
2022-10-21T05:21:54.717Z,19.65
2022-10-21T05:24:24.433Z,18.75
2022-10-21T05:26:54.317Z,18.88
2022-10-21T05:29:23.985Z,20.55
2022-10-21T05:31:53.666Z,27.00
2022-10-21T05:34:23.385Z,19.48
2022-10-21T05:36:55.690Z,16.38
2022-10-21T05:39:25.485Z,17.90
2022-10-21T05:41:55.181Z,18.23
2022-10-21T05:44:25.106Z,18.25
2022-10-21T05:46:54.945Z,15.63
2022-10-21T05:49:24.721Z,16.48
2022-10-21T05:51:57.092Z,16.77
2022-10-21T05:54:27.166Z,17.75
2022-10-21T05:56:58.480Z,18.92
2022-10-21T05:59:29.060Z,17.67
2022-10-21T06:01:58.787Z,25.10
2022-10-21T06:04:28.820Z,22.13
2022-10-21T06:07:01.204Z,19.27
2022-10-21T06:09:30.932Z,21.23
2022-10-21T06:12:00.688Z,24.63
2022-10-21T06:14:30.671Z,22.95
2022-10-21T06:17:00.409Z,21.60
2022-10-21T06:19:31.057Z,20.27
2022-10-21T06:22:03.433Z,21.70
2022-10-21T06:24:33.252Z,23.48
2022-10-21T06:27:02.926Z,24.50
2022-10-21T06:29:32.717Z,24.00
2022-10-21T06:32:02.465Z,27.42
2022-10-21T06:34:32.172Z,34.58
2022-10-21T06:37:04.468Z,27.75
2022-10-21T06:39:34.157Z,24.95
2022-10-21T06:42:03.829Z,25.70
2022-10-21T06:44:33.517Z,26.52
2022-10-21T06:47:03.187Z,28.27
2022-10-21T06:49:32.938Z,32.72
2022-10-21T06:52:05.324Z,29.88
2022-10-21T06:54:35.206Z,28.48
2022-10-21T06:57:04.909Z,26.33
2022-10-21T06:59:34.798Z,28.15
2022-10-21T07:02:04.512Z,25.15
2022-10-21T07:04:34.937Z,26.70
2022-10-21T07:07:08.061Z,24.48
2022-10-21T07:09:37.982Z,26.27
2022-10-21T07:12:08.457Z,23.30
2022-10-21T07:14:38.149Z,23.00
2022-10-21T07:17:08.110Z,26.38
2022-10-21T07:19:37.887Z,23.98
2022-10-21T07:22:10.420Z,22.10
2022-10-21T07:24:40.265Z,20.95
2022-10-21T07:27:10.055Z,23.00
2022-10-21T07:29:39.743Z,22.15
2022-10-21T07:32:09.460Z,21.88
2022-10-21T07:34:39.187Z,21.45
2022-10-21T07:37:11.505Z,21.85
2022-10-21T07:39:41.249Z,20.92
2022-10-21T07:42:11.392Z,19.98
2022-10-21T07:44:41.126Z,19.65
2022-10-21T07:47:10.957Z,17.42
2022-10-21T07:49:40.716Z,18.90
2022-10-21T07:54:43.065Z,19.55
2022-10-21T07:57:12.799Z,19.45
2022-10-21T07:59:44.348Z,18.58
2022-10-21T08:02:19.132Z,19.50
2022-10-21T08:04:48.923Z,18.00
2022-10-21T08:07:21.372Z,18.42
2022-10-21T08:09:51.130Z,17.38
2022-10-21T08:12:20.807Z,18.73
2022-10-21T08:14:50.619Z,17.83
2022-10-21T08:17:20.830Z,20.80
2022-10-21T08:19:50.672Z,17.67
2022-10-21T08:22:23.021Z,17.48
2022-10-21T08:24:52.706Z,16.90
2022-10-21T08:27:30.234Z,18.05
2022-10-21T08:29:59.991Z,21.23
2022-10-21T08:32:30.013Z,18.85
2022-10-21T08:34:59.776Z,17.60
2022-10-21T08:37:32.476Z,15.77
2022-10-21T08:40:02.257Z,16.40
2022-10-21T08:42:31.990Z,15.13
2022-10-21T08:45:07.469Z,16.98
2022-10-21T08:47:45.449Z,16.75
2022-10-21T08:50:18.467Z,16.75
2022-10-21T08:52:54.464Z,17.48
2022-10-21T08:55:27.061Z,15.50
2022-10-21T08:57:57.365Z,15.68
2022-10-21T09:00:33.417Z,16.33
2022-10-21T09:03:09.736Z,14.30
2022-10-21T09:05:57.561Z,13.88
2022-10-21T09:08:37.619Z,16.88
2022-10-21T09:11:19.712Z,14.85
2022-10-21T09:14:13.333Z,16.85
2022-10-21T09:16:52.839Z,17.20
2022-10-21T09:19:36.067Z,17.33
2022-10-21T09:22:34.405Z,18.20
2022-10-21T09:25:22.172Z,16.45
2022-10-21T09:27:57.244Z,17.58
2022-10-21T09:30:27.997Z,16.60
2022-10-21T09:33:00.988Z,16.13
2022-10-21T09:35:37.871Z,13.25
2022-10-21T09:38:16.964Z,14.85
2022-10-21T09:40:52.223Z,15.30
2022-10-21T09:43:27.098Z,19.00
2022-10-21T09:45:57.510Z,16.75
2022-10-21T09:48:46.137Z,16.55
2022-10-21T09:51:31.501Z,14.30
2022-10-21T09:54:07.753Z,14.00
2022-10-21T09:56:46.726Z,14.13
2022-10-21T09:59:19.535Z,13.63
2022-10-21T10:01:50.907Z,13.80
2022-10-21T10:04:25.962Z,13.48
2022-10-21T10:06:55.808Z,15.23
2022-10-21T10:09:31.728Z,13.73
2022-10-21T10:12:05.537Z,14.10
2022-10-21T10:14:38.510Z,14.93
2022-10-21T10:17:31.830Z,12.98
2022-10-21T10:20:18.435Z,13.25
2022-10-21T10:22:49.505Z,16.05
2022-10-21T10:25:26.524Z,12.60
2022-10-21T10:28:00.485Z,13.68
2022-10-21T10:30:38.482Z,13.88
2022-10-21T10:33:12.296Z,12.48
2022-10-21T10:35:48.985Z,13.98
2022-10-21T10:38:26.584Z,12.65
2022-10-21T10:40:58.561Z,12.80
2022-10-21T10:43:33.777Z,15.23
2022-10-21T10:46:06.821Z,14.48
2022-10-21T10:48:41.159Z,15.70
2022-10-21T10:51:25.966Z,13.02
2022-10-21T10:54:19.156Z,14.82
2022-10-21T10:56:54.768Z,15.18
2022-10-21T10:59:35.345Z,15.27
2022-10-21T11:02:25.142Z,14.65
2022-10-21T11:05:11.909Z,12.50
2022-10-21T11:07:47.845Z,12.88
2022-10-21T11:10:31.443Z,12.80
2022-10-21T11:13:02.124Z,13.00
2022-10-21T11:15:47.529Z,16.25
2022-10-21T11:18:27.097Z,11.80
2022-10-21T11:21:09.022Z,11.45
2022-10-21T11:23:56.947Z,11.45
2022-10-21T11:26:36.927Z,15.38
2022-10-21T11:29:20.143Z,10.15
2022-10-21T11:32:11.939Z,12.52
2022-10-21T11:34:54.289Z,12.10
2022-10-21T11:37:32.793Z,9.93
2022-10-21T11:40:13.613Z,10.15
2022-10-21T11:42:45.858Z,9.43
2022-10-21T11:45:40.749Z,10.68
2022-10-21T11:48:27.297Z,8.88
2022-10-21T11:51:14.287Z,8.43
2022-10-21T11:54:03.852Z,9.38
2022-10-21T11:56:43.285Z,11.25
2022-10-21T11:59:28.295Z,11.43
2022-10-21T12:02:12.044Z,10.73
2022-10-21T12:04:53.985Z,8.63
2022-10-21T12:07:40.100Z,9.13
2022-10-21T12:10:15.489Z,9.27
2022-10-21T12:12:49.670Z,8.40
2022-10-21T12:15:23.334Z,12.30
2022-10-21T12:17:53.980Z,10.05
2022-10-21T12:20:29.723Z,12.82
2022-10-21T12:23:05.338Z,11.15
2022-10-21T12:25:43.474Z,12.13
2022-10-21T12:28:19.988Z,9.55
2022-10-21T12:30:57.673Z,8.40
2022-10-21T12:33:38.739Z,11.32
2022-10-21T12:36:39.398Z,10.02
2022-10-21T12:39:12.937Z,8.60
2022-10-21T12:41:43.361Z,8.00
2022-10-21T12:44:28.556Z,9.65
2022-10-21T12:47:00.181Z,9.43
2022-10-21T12:49:33.766Z,9.38
2022-10-21T12:52:16.261Z,8.73
2022-10-21T12:54:55.529Z,8.60
2022-10-21T12:57:30.489Z,9.82
2022-10-21T13:00:18.924Z,8.80
2022-10-21T13:03:12.245Z,7.65
2022-10-21T13:06:04.953Z,10.10
2022-10-21T13:08:55.577Z,10.27
2022-10-21T13:11:40.036Z,7.90
2022-10-21T13:14:36.130Z,11.05
2022-10-21T13:17:34.722Z,7.72
2022-10-21T13:20:38.552Z,9.48
2022-10-21T13:23:34.435Z,8.30
2022-10-21T13:26:17.463Z,10.45
2022-10-21T13:29:02.228Z,8.88
2022-10-21T13:31:32.461Z,6.55
2022-10-21T13:34:02.842Z,10.60
2022-10-21T13:36:43.423Z,10.70
2022-10-21T13:39:26.901Z,8.60
2022-10-21T13:42:06.253Z,7.55
2022-10-21T13:44:39.689Z,9.88
2022-10-21T13:47:23.228Z,7.03
2022-10-21T13:49:54.195Z,9.65
2022-10-21T13:52:23.961Z,7.60
2022-10-21T13:54:59.853Z,11.07
2022-10-21T13:57:37.682Z,9.57
2022-10-21T14:00:11.374Z,7.80
2022-10-21T14:02:49.946Z,11.52
2022-10-21T14:05:39.787Z,10.13
2022-10-21T14:08:20.113Z,8.60
2022-10-21T14:10:51.041Z,9.95
2022-10-21T14:13:28.921Z,8.55
2022-10-21T14:15:59.573Z,8.20
2022-10-21T14:18:37.325Z,7.25
2022-10-21T14:21:08.712Z,8.52
2022-10-21T14:23:38.744Z,8.25
2022-10-21T14:26:10.702Z,8.65
2022-10-21T14:28:43.709Z,7.97
2022-10-21T14:31:17.297Z,9.60
2022-10-21T14:33:49.847Z,8.63
2022-10-21T14:36:23.555Z,11.15
2022-10-21T14:38:59.439Z,9.00
2022-10-21T14:41:33.508Z,7.28
2022-10-21T14:44:17.536Z,11.20
2022-10-21T14:46:49.531Z,8.30
2022-10-21T14:49:25.719Z,6.95
2022-10-21T14:52:01.984Z,8.45
2022-10-21T14:54:45.362Z,8.60
2022-10-21T14:57:34.936Z,8.38
2022-10-21T15:00:10.524Z,8.55
2022-10-21T15:02:41.052Z,9.02
2022-10-21T15:05:49.213Z,7.53
2022-10-21T15:08:32.554Z,9.43
2022-10-21T15:11:23.848Z,8.35
2022-10-21T15:14:00.905Z,9.52
2022-10-21T15:19:26.154Z,9.70
2022-10-21T15:21:59.053Z,10.00
2022-10-21T15:24:44.911Z,13.15
2022-10-21T15:27:20.203Z,9.60
2022-10-21T15:29:51.459Z,8.73
2022-10-21T15:32:28.190Z,9.95
2022-10-21T15:35:01.428Z,10.50
2022-10-21T15:37:31.091Z,10.65
2022-10-21T15:40:00.772Z,10.10
2022-10-21T15:42:30.490Z,8.95
2022-10-21T15:45:02.165Z,10.00
2022-10-21T15:47:34.599Z,11.02
2022-10-21T15:50:04.308Z,10.35
2022-10-21T15:52:34.013Z,9.15
2022-10-21T15:55:03.747Z,7.80
2022-10-21T15:57:33.503Z,9.95
2022-10-21T16:00:03.210Z,7.72
2022-10-21T16:02:39.550Z,9.45
2022-10-21T16:05:10.810Z,7.60
2022-10-21T16:07:40.579Z,7.72
2022-10-21T16:10:20.706Z,12.13
2022-10-21T16:12:51.200Z,8.13
2022-10-21T16:15:22.347Z,10.23
2022-10-21T16:17:56.340Z,9.02
2022-10-21T16:20:29.277Z,8.48
2022-10-21T16:23:02.238Z,7.97
2022-10-21T16:25:33.529Z,11.43
2022-10-21T16:28:04.925Z,9.52
2022-10-21T16:30:39.296Z,10.02
2022-10-21T16:33:11.671Z,8.48
2022-10-21T16:35:41.364Z,10.45
2022-10-21T16:38:12.208Z,23.05
2022-10-21T16:40:42.012Z,22.95
2022-10-21T16:43:12.870Z,23.02
2022-10-21T16:45:42.906Z,22.50
2022-10-21T16:48:15.288Z,15.13
2022-10-21T16:50:49.257Z,13.00
2022-10-21T16:53:21.982Z,10.05
2022-10-21T16:55:51.706Z,9.68
2022-10-21T16:58:21.432Z,10.45
2022-10-21T17:00:51.349Z,9.50
2022-10-21T17:03:23.757Z,11.38
2022-10-21T17:05:53.593Z,8.82
2022-10-21T17:08:26.180Z,8.23
2022-10-21T17:10:55.978Z,7.95
2022-10-21T17:13:25.695Z,10.50
2022-10-21T17:15:55.428Z,8.65
2022-10-21T17:18:27.881Z,10.65
2022-10-21T17:20:57.738Z,10.45
2022-10-21T17:23:29.316Z,11.93
2022-10-21T17:25:59.080Z,16.73
2022-10-21T17:28:28.777Z,12.60
2022-10-21T17:30:58.892Z,11.23
2022-10-21T17:33:31.182Z,11.77
2022-10-21T17:36:00.896Z,14.55
2022-10-21T17:38:30.611Z,12.65
2022-10-21T17:41:00.308Z,12.98
2022-10-21T17:43:30.022Z,10.88
2022-10-21T17:46:00.221Z,12.35
2022-10-21T17:48:32.580Z,9.93
2022-10-21T17:51:04.686Z,9.80
2022-10-21T17:53:34.459Z,9.75
2022-10-21T17:56:06.091Z,9.65
2022-10-21T17:58:36.648Z,9.73
2022-10-21T18:01:10.702Z,10.55
2022-10-21T18:03:43.413Z,10.85
2022-10-21T18:06:14.990Z,10.43
2022-10-21T18:08:45.772Z,9.45
2022-10-21T18:11:17.570Z,10.93
2022-10-21T18:13:50.792Z,10.73
2022-10-21T18:16:24.886Z,9.82
2022-10-21T18:19:00.200Z,10.57
2022-10-21T18:21:33.087Z,9.77
2022-10-21T18:24:02.899Z,10.13
2022-10-21T18:26:34.173Z,9.57
2022-10-21T18:29:05.304Z,8.55
2022-10-21T18:31:37.733Z,9.98
2022-10-21T18:34:10.231Z,8.77
2022-10-21T18:36:40.960Z,8.50
2022-10-21T18:39:11.068Z,9.30
2022-10-21T18:41:41.072Z,9.52
2022-10-21T18:44:13.509Z,7.93
2022-10-21T18:46:46.782Z,8.40
2022-10-21T18:49:19.499Z,9.18
2022-10-21T18:51:49.235Z,8.38
2022-10-21T18:54:19.024Z,9.13
2022-10-21T18:56:48.723Z,10.40
2022-10-21T18:59:18.466Z,9.45
2022-10-21T19:01:48.223Z,9.10
2022-10-21T19:04:20.617Z,9.18
2022-10-21T19:06:50.479Z,10.18
2022-10-21T19:09:22.779Z,9.25
2022-10-21T19:11:52.713Z,10.32
2022-10-21T19:14:22.734Z,10.13
2022-10-21T19:16:53.239Z,10.27
2022-10-21T19:19:25.529Z,9.70
2022-10-21T19:21:55.349Z,9.73
2022-10-21T19:24:25.044Z,9.20
2022-10-21T19:26:56.945Z,8.55
2022-10-21T19:29:27.864Z,12.13
2022-10-21T19:31:57.596Z,8.45
2022-10-21T19:34:29.943Z,9.43
2022-10-21T19:36:59.664Z,8.63
2022-10-21T19:39:29.353Z,8.73
2022-10-21T19:41:59.736Z,9.05
2022-10-21T19:44:29.535Z,8.57
2022-10-21T19:46:59.228Z,7.85
2022-10-21T19:49:31.638Z,8.23
2022-10-21T19:52:01.324Z,7.93
2022-10-21T19:54:31.127Z,8.13
2022-10-21T19:57:00.849Z,7.60
2022-10-21T19:59:33.505Z,7.75
2022-10-21T20:02:03.185Z,7.53
2022-10-21T20:04:36.150Z,9.88
2022-10-21T20:07:06.173Z,8.50
2022-10-21T20:09:37.987Z,7.50
2022-10-21T20:12:08.921Z,7.88
2022-10-21T20:14:38.624Z,8.80
2022-10-21T20:17:08.334Z,9.18
2022-10-21T20:19:40.665Z,8.07
2022-10-21T20:22:10.395Z,10.25
2022-10-21T20:24:46.276Z,7.22
2022-10-21T20:27:16.389Z,7.88
2022-10-21T20:29:46.128Z,8.23
2022-10-21T20:32:15.808Z,7.18
2022-10-21T20:34:49.118Z,8.57
2022-10-21T20:37:18.856Z,8.88
2022-10-21T20:39:48.601Z,8.38
2022-10-21T20:42:18.284Z,9.65
2022-10-21T20:44:47.959Z,7.03
2022-10-21T20:47:19.232Z,7.85
2022-10-21T20:49:51.645Z,8.32
2022-10-21T20:52:21.343Z,9.38
2022-10-21T20:54:53.843Z,7.93
2022-10-21T20:57:23.742Z,9.18
2022-10-21T20:59:53.437Z,8.73
2022-10-21T21:02:23.120Z,9.88
2022-10-21T21:04:55.536Z,8.15
2022-10-21T21:07:25.349Z,9.57
2022-10-21T21:10:02.674Z,8.60
2022-10-21T21:12:33.213Z,10.63
2022-10-21T21:15:03.881Z,10.07
2022-10-21T21:17:33.600Z,10.10
2022-10-21T21:20:06.000Z,9.90
2022-10-21T21:22:39.014Z,8.40
2022-10-21T21:25:10.352Z,9.25
2022-10-21T21:27:40.352Z,9.68
2022-10-21T21:30:11.638Z,7.53
2022-10-21T21:32:41.562Z,7.40
2022-10-21T21:35:14.556Z,6.65
2022-10-21T21:37:44.238Z,5.85
2022-10-21T21:40:14.573Z,6.38
2022-10-21T21:42:44.398Z,5.90
2022-10-21T21:45:14.226Z,5.38
2022-10-21T21:47:43.917Z,4.90
2022-10-21T21:50:16.217Z,6.63
2022-10-21T21:52:46.431Z,4.22
2022-10-21T21:55:16.355Z,8.05
2022-10-21T21:57:46.065Z,6.65
2022-10-21T22:00:16.939Z,4.97
2022-10-21T22:02:47.059Z,5.63
2022-10-21T22:05:22.490Z,6.78
2022-10-21T22:07:55.952Z,5.95
2022-10-21T22:10:25.675Z,7.18
2022-10-21T22:12:56.646Z,7.38
2022-10-21T22:15:47.216Z,5.85
2022-10-21T22:18:16.498Z,6.47
2022-10-21T22:20:48.815Z,7.53
2022-10-21T22:23:20.032Z,7.50
2022-10-21T22:25:49.869Z,8.18
2022-10-21T22:28:19.571Z,8.43
2022-10-21T22:30:57.294Z,6.20
2022-10-21T22:33:27.037Z,8.07
2022-10-21T22:35:59.369Z,8.60
2022-10-21T22:38:29.350Z,8.80
2022-10-21T22:41:00.877Z,8.07
2022-10-21T22:43:32.542Z,7.55
2022-10-21T22:46:09.878Z,8.73
2022-10-21T22:48:51.594Z,7.78
2022-10-21T22:51:23.980Z,7.55
2022-10-21T22:53:56.410Z,7.10
2022-10-21T22:56:26.783Z,8.27
2022-10-21T22:58:57.334Z,7.40
2022-10-21T23:01:30.268Z,8.13
2022-10-21T23:04:02.816Z,8.07
2022-10-21T23:06:36.562Z,6.85
2022-10-21T23:09:07.727Z,7.70
2022-10-21T23:11:37.612Z,7.00
2022-10-21T23:14:09.551Z,6.45
2022-10-21T23:16:39.554Z,8.20
2022-10-21T23:19:13.463Z,7.07
2022-10-21T23:21:45.764Z,8.13
2022-10-21T23:24:15.700Z,7.10
2022-10-21T23:26:45.364Z,7.63
2022-10-21T23:29:15.085Z,6.60
2022-10-21T23:31:44.813Z,6.43
2022-10-21T23:34:14.502Z,5.97
2022-10-21T23:36:46.823Z,6.80
2022-10-21T23:39:16.503Z,8.40
2022-10-21T23:41:46.193Z,6.80
2022-10-21T23:44:16.416Z,9.65
2022-10-21T23:46:46.113Z,7.30
2022-10-21T23:49:16.221Z,6.90
2022-10-21T23:51:48.502Z,6.38
2022-10-21T23:54:18.377Z,6.28
2022-10-21T23:56:48.272Z,9.00
2022-10-21T23:59:17.983Z,7.85
